Briefing drone pour Auxonne

Rechercher une autre localisation

Conditions de vol :


Nous sommes le : Mardi 27 juillet 2021
Il est 10:56 UTC (12:56 LT)

Lever de soleil : 03:45 UTC (05:45 LT)
Coucher de soleil : 19:44 UTC (21:44 LT)

Météo

L'essentiel des conditions de vol

VIGILANCE MÉTÉO FRANCE - Côte-dOr (21)
Vigilance Jaune : Orages
CARTES DES FRONTS
METAR de LFSD
LFSD 271030Z AUTO 18006KT 140V230 9999 FEW036 24/15 Q1014

Date d'émission: 27/07/2021
Heure d'émission: 10:30 UTC
Vent: 180° (variable du 140° au 230°) pour 6 KT (11 km/h)
Visibilité horizontale: > 10 km
Plafond :
- Peu de nuages à 3600ft (1097m)
Température: 24 °C
Point de rosée: 15 °C
Humidité: 57%
Pression (QNH): 1014 hPa
TAF de LFSD
LFSD 010600Z 0100/0124 CNL

Conditions prévues :

Heure d'émission : Bulletin éffectué le 01 à 00:00 UTC
Prévision : Valide du 01 a 00:00 UTC au 01 a 23:59 UTC
Nuages : à 0ft (0 m)
WEBCAM POUR AUXONNE

Réglementation

Voler en sécurité

CARTES AERONAUTIQUE 1/500.000
CARTES VAC (LFSD)
SUP AIP




Chargement des AIP...
NOTAM (AUXONNE + Terrain à proximité / FIR )




Chargement des NOTAMS...
CONTACT PREFECTURE 21
Côte-dOr (21) : pref-drone@cote-dor.gouv.fr


Avertissement : Les données mises à disposition sont indicatives. Oxygène Drone ne pourra être tenu responsable de dégâts causés aux biens et aux personnes.